createdAt,value
2019-04-21T00:01:55.989Z,41.50
2019-04-21T00:04:38.014Z,41.70
2019-04-21T00:07:14.485Z,41.80
2019-04-21T00:09:53.378Z,42.00
2019-04-21T00:12:15.264Z,41.90
2019-04-21T00:14:39.702Z,42.10
2019-04-21T00:17:05.337Z,42.10
2019-04-21T00:19:31.782Z,42.30
2019-04-21T00:22:08.595Z,42.10
2019-04-21T00:24:44.487Z,42.50
2019-04-21T00:27:18.814Z,42.50
2019-04-21T00:29:49.774Z,43.00
2019-04-21T00:32:16.608Z,42.90
2019-04-21T00:34:30.269Z,43.20
2019-04-21T00:37:09.445Z,43.30
2019-04-21T00:39:58.782Z,43.40
2019-04-21T00:42:18.404Z,43.50
2019-04-21T00:44:40.101Z,43.70
2019-04-21T00:47:15.705Z,43.80
2019-04-21T00:49:52.369Z,44.00
2019-04-21T00:55:33.935Z,44.40
2019-04-21T00:57:58.520Z,44.30
2019-04-21T01:00:22.897Z,44.40
2019-04-21T01:02:56.191Z,44.40
2019-04-21T01:05:26.911Z,45.30
2019-04-21T01:07:56.202Z,45.00
2019-04-21T01:10:17.515Z,44.90
2019-04-21T01:12:56.343Z,45.20
2019-04-21T01:15:32.812Z,45.20
2019-04-21T01:17:59.345Z,46.10
2019-04-21T01:20:16.731Z,45.90
2019-04-21T01:22:38.646Z,46.30
2019-04-21T01:25:14.534Z,46.30
2019-04-21T01:27:56.446Z,46.40
2019-04-21T01:30:28.587Z,46.30
2019-04-21T01:33:00.075Z,46.50
2019-04-21T01:35:34.311Z,45.70
2019-04-21T01:38:03.045Z,46.90
2019-04-21T01:43:03.588Z,46.70
2019-04-21T01:45:35.247Z,47.20
2019-04-21T01:48:04.507Z,47.00
2019-04-21T01:50:39.293Z,46.80
2019-04-21T01:53:10.863Z,47.60
2019-04-21T01:55:46.678Z,47.40
2019-04-21T01:58:15.343Z,47.30
2019-04-21T02:00:51.831Z,47.60
2019-04-21T02:03:46.680Z,46.10
2019-04-21T02:06:04.470Z,48.00
2019-04-21T02:08:27.703Z,46.50
2019-04-21T02:11:09.554Z,48.50
2019-04-21T02:13:28.241Z,48.50
2019-04-21T02:16:01.119Z,48.10
2019-04-21T02:18:29.218Z,47.70
2019-04-21T02:20:48.119Z,48.40
2019-04-21T02:23:38.206Z,48.60
2019-04-21T02:26:07.897Z,49.50
2019-04-21T02:28:38.418Z,49.30
2019-04-21T02:31:40.504Z,49.10
2019-04-21T02:34:00.296Z,49.50
2019-04-21T02:36:40.240Z,48.20
2019-04-21T02:39:10.532Z,48.00
2019-04-21T02:41:43.669Z,49.00
2019-04-21T02:44:12.363Z,50.10
2019-04-21T02:46:42.466Z,49.90
2019-04-21T02:49:22.929Z,50.50
2019-04-21T02:51:36.340Z,49.70
2019-04-21T02:54:35.934Z,50.70
2019-04-21T02:56:48.202Z,51.10
2019-04-21T02:59:17.229Z,51.80
2019-04-21T03:01:49.016Z,51.40
2019-04-21T03:09:39.454Z,51.60
2019-04-21T03:17:14.636Z,51.20
2019-04-21T03:19:55.799Z,50.00
2019-04-21T03:25:21.343Z,52.20
2019-04-21T03:35:25.923Z,53.50
2019-04-21T03:37:30.863Z,53.50
2019-04-21T03:39:54.490Z,51.40
2019-04-21T03:42:27.164Z,53.40
2019-04-21T03:44:45.726Z,53.10
2019-04-21T03:47:22.853Z,53.80
2019-04-21T04:00:44.933Z,54.20
2019-04-21T04:06:03.444Z,53.10
2019-04-21T04:08:52.440Z,54.30
2019-04-21T04:14:01.984Z,54.50
2019-04-21T04:16:19.630Z,55.00
2019-04-21T04:21:20.685Z,54.70
2019-04-21T04:23:55.331Z,54.90
2019-04-21T04:26:13.032Z,55.10
2019-04-21T04:29:03.540Z,55.40
2019-04-21T04:33:55.470Z,55.00
2019-04-21T04:41:45.552Z,55.00
2019-04-21T04:44:07.148Z,55.10
2019-04-21T04:46:28.746Z,54.90
2019-04-21T04:49:01.711Z,54.30
2019-04-21T04:51:33.414Z,54.60
2019-04-21T04:56:31.784Z,54.10
2019-04-21T05:03:56.647Z,53.50
2019-04-21T05:06:42.577Z,53.20
2019-04-21T05:09:07.791Z,53.00
2019-04-21T05:14:07.574Z,52.30
2019-04-21T05:19:57.269Z,51.80
2019-04-21T05:23:49.856Z,50.60
2019-04-21T05:26:14.955Z,49.90
2019-04-21T05:28:41.975Z,49.50
2019-04-21T05:31:40.048Z,49.20
2019-04-21T05:34:18.924Z,49.10
2019-04-21T05:37:01.139Z,49.70
2019-04-21T05:39:31.716Z,48.60
2019-04-21T05:41:54.246Z,48.30
2019-04-21T05:44:44.490Z,48.60
2019-04-21T05:47:15.944Z,48.60
2019-04-21T05:49:35.420Z,48.70
2019-04-21T05:52:03.775Z,48.70
2019-04-21T05:54:45.264Z,48.80
2019-04-21T05:57:25.415Z,48.40
2019-04-21T05:59:49.181Z,47.90
2019-04-21T06:02:18.595Z,47.80
2019-04-21T06:07:19.042Z,47.30
2019-04-21T06:09:54.219Z,47.00
2019-04-21T06:12:18.263Z,47.20
2019-04-21T06:14:48.450Z,47.10
2019-04-21T06:17:19.327Z,45.90
2019-04-21T06:19:49.678Z,46.20
2019-04-21T06:22:14.858Z,46.70
2019-04-21T06:25:13.440Z,46.00
2019-04-21T06:27:17.626Z,45.70
2019-04-21T06:29:49.780Z,45.20
2019-04-21T06:35:06.254Z,44.30
2019-04-21T06:37:40.536Z,43.90
2019-04-21T06:40:09.335Z,43.30
2019-04-21T06:42:21.177Z,42.20
2019-04-21T06:47:29.978Z,40.70
2019-04-21T06:49:58.421Z,40.40
2019-04-21T06:52:44.752Z,39.40
2019-04-21T06:54:56.057Z,40.40
2019-04-21T06:57:29.176Z,39.30
2019-04-21T07:00:12.093Z,38.70
2019-04-21T07:05:18.157Z,39.80
2019-04-21T07:07:44.377Z,39.80
2019-04-21T07:10:18.190Z,38.70
2019-04-21T07:12:42.949Z,39.00
2019-04-21T07:15:11.339Z,37.60
2019-04-21T07:17:45.397Z,37.80
2019-04-21T07:20:18.855Z,38.20
2019-04-21T07:22:48.091Z,38.90
2019-04-21T07:25:15.385Z,37.50
2019-04-21T07:27:49.298Z,38.10
2019-04-21T07:30:23.078Z,37.90
2019-04-21T07:32:47.527Z,38.00
2019-04-21T07:35:17.905Z,38.60
2019-04-21T07:37:52.373Z,38.10
2019-04-21T07:40:12.355Z,37.70
2019-04-21T07:42:43.882Z,38.20
2019-04-21T07:45:13.229Z,38.30
2019-04-21T07:47:52.594Z,36.80
2019-04-21T07:50:45.468Z,37.70
2019-04-21T07:53:21.118Z,36.70
2019-04-21T07:58:14.992Z,36.00
2019-04-21T08:00:51.231Z,35.60
2019-04-21T08:03:13.925Z,35.90
2019-04-21T08:05:51.034Z,36.60
2019-04-21T08:08:14.215Z,36.00
2019-04-21T08:10:47.642Z,34.90
2019-04-21T08:13:27.292Z,34.60
2019-04-21T08:15:45.801Z,33.80
2019-04-21T08:18:20.486Z,34.30
2019-04-21T08:20:42.912Z,34.80
2019-04-21T08:23:18.634Z,34.30
2019-04-21T08:25:56.992Z,33.50
2019-04-21T08:28:20.773Z,33.70
2019-04-21T08:30:47.822Z,33.50
2019-04-21T08:33:30.590Z,34.00
2019-04-21T08:38:21.961Z,31.90
2019-04-21T08:40:49.230Z,32.90
2019-04-21T08:43:30.699Z,32.90
2019-04-21T08:45:57.317Z,32.50
2019-04-21T08:48:17.038Z,30.80
2019-04-21T08:51:00.125Z,31.20
2019-04-21T08:53:21.314Z,32.30
2019-04-21T08:55:56.584Z,31.70
2019-04-21T08:58:41.440Z,32.00
2019-04-21T09:01:20.523Z,30.80
2019-04-21T09:03:56.777Z,30.20
2019-04-21T09:06:33.996Z,29.40
2019-04-21T09:08:58.933Z,29.30
2019-04-21T09:11:22.559Z,29.20
2019-04-21T09:13:54.847Z,28.50
2019-04-21T09:16:26.439Z,28.20
2019-04-21T09:18:52.800Z,28.50
2019-04-21T09:21:32.713Z,28.30
2019-04-21T09:23:56.332Z,28.10
2019-04-21T09:26:30.990Z,27.00
2019-04-21T09:28:52.103Z,27.50
2019-04-21T09:31:12.413Z,27.90
2019-04-21T09:33:47.121Z,28.30
2019-04-21T09:36:15.394Z,27.10
2019-04-21T09:38:43.842Z,27.10
2019-04-21T09:41:16.397Z,27.30
2019-04-21T09:43:47.374Z,26.50
2019-04-21T09:46:12.400Z,25.30
2019-04-21T09:48:50.080Z,26.50
2019-04-21T09:51:11.306Z,27.40
2019-04-21T09:53:42.216Z,25.60
2019-04-21T09:56:14.816Z,25.00
2019-04-21T09:58:46.087Z,24.50
2019-04-21T10:01:18.573Z,24.10
2019-04-21T10:03:46.661Z,24.10
2019-04-21T10:06:11.576Z,24.00
2019-04-21T10:08:42.321Z,25.50
2019-04-21T10:11:11.883Z,23.80
2019-04-21T10:13:41.855Z,22.90
2019-04-21T10:16:21.892Z,23.60
2019-04-21T10:18:50.599Z,23.50
2019-04-21T10:21:19.803Z,22.20
2019-04-21T10:23:48.405Z,21.90
2019-04-21T10:26:17.005Z,21.30
2019-04-21T10:28:46.784Z,21.00
2019-04-21T10:31:16.618Z,21.10
2019-04-21T10:33:46.276Z,22.10
2019-04-21T10:36:15.176Z,20.30
2019-04-21T10:38:48.759Z,21.10
2019-04-21T10:41:15.145Z,21.10
2019-04-21T10:43:45.105Z,20.40
2019-04-21T10:46:14.938Z,20.30
2019-04-21T10:48:43.609Z,19.70
2019-04-21T10:51:13.038Z,20.90
2019-04-21T10:53:43.348Z,20.30
2019-04-21T10:56:19.939Z,21.40
2019-04-21T10:58:44.482Z,19.70
2019-04-21T11:01:14.750Z,19.80
2019-04-21T11:03:55.113Z,19.90
2019-04-21T11:06:24.454Z,19.50
2019-04-21T11:08:55.548Z,19.00
2019-04-21T11:11:23.870Z,19.50
2019-04-21T11:13:52.748Z,19.30
2019-04-21T11:16:21.408Z,19.40
2019-04-21T11:18:50.006Z,19.80
2019-04-21T11:21:19.024Z,19.80
2019-04-21T11:23:48.034Z,20.70
2019-04-21T11:26:17.906Z,20.40
2019-04-21T11:28:47.210Z,20.40
2019-04-21T11:31:16.010Z,19.80
2019-04-21T11:33:47.154Z,20.60
2019-04-21T11:36:15.797Z,21.20
2019-04-21T11:39:14.902Z,22.00
2019-04-21T11:41:33.897Z,21.70
2019-04-21T11:44:03.463Z,22.00
2019-04-21T11:46:34.226Z,21.60
2019-04-21T11:49:04.025Z,21.80
2019-04-21T11:51:33.329Z,22.00
2019-04-21T11:54:01.889Z,22.20
2019-04-21T11:56:30.551Z,22.30
2019-04-21T11:59:01.706Z,22.30
2019-04-21T12:01:31.749Z,22.40
2019-04-21T12:04:00.542Z,22.30
2019-04-21T12:06:35.072Z,22.70
2019-04-21T12:09:01.615Z,22.80
2019-04-21T12:11:29.841Z,23.60
2019-04-21T12:13:58.560Z,23.90
2019-04-21T12:16:27.191Z,24.50
2019-04-21T12:18:56.777Z,24.30
2019-04-21T12:21:28.315Z,23.50
2019-04-21T12:23:56.596Z,24.30
2019-04-21T12:26:26.391Z,23.40
2019-04-21T12:28:56.089Z,24.10
2019-04-21T12:31:39.252Z,24.30
2019-04-21T12:34:09.889Z,25.00
2019-04-21T12:36:39.947Z,24.50
2019-04-21T12:39:10.716Z,24.30
2019-04-21T12:41:40.496Z,24.70
2019-04-21T12:44:09.226Z,24.50
2019-04-21T12:46:38.130Z,24.80
2019-04-21T12:49:07.638Z,25.00
2019-04-21T12:51:37.576Z,25.10
2019-04-21T12:54:08.003Z,25.20
2019-04-21T12:56:37.599Z,25.70
2019-04-21T12:59:07.875Z,25.70
2019-04-21T13:01:37.005Z,25.40
2019-04-21T13:04:08.069Z,25.40
2019-04-21T13:06:37.381Z,25.30
2019-04-21T13:09:10.532Z,25.10
2019-04-21T13:11:37.539Z,25.40
2019-04-21T13:14:06.215Z,24.70
2019-04-21T13:16:34.865Z,24.60
2019-04-21T13:19:03.505Z,24.60
2019-04-21T13:21:32.180Z,24.30
2019-04-21T13:24:01.017Z,25.10
2019-04-21T13:26:42.454Z,26.00
2019-04-21T13:29:00.622Z,26.20
2019-04-21T13:31:30.020Z,25.60
2019-04-21T13:33:59.866Z,25.00
2019-04-21T13:36:31.754Z,25.70
2019-04-21T13:39:48.741Z,25.80
2019-04-21T13:42:00.543Z,25.40
2019-04-21T13:44:19.703Z,25.50
2019-04-21T13:46:49.672Z,26.20
2019-04-21T13:49:19.246Z,25.50
2019-04-21T13:51:48.136Z,26.30
2019-04-21T13:54:18.070Z,25.80
2019-04-21T13:56:46.930Z,26.20
2019-04-21T13:59:19.859Z,26.20
2019-04-21T14:01:49.780Z,25.60
2019-04-21T14:04:19.724Z,26.30
2019-04-21T14:06:50.126Z,26.00
2019-04-21T14:09:19.950Z,26.00
2019-04-21T14:11:49.390Z,26.90
2019-04-21T14:14:18.835Z,27.30
2019-04-21T14:16:47.985Z,26.10
2019-04-21T14:19:17.244Z,26.30
2019-04-21T14:21:49.540Z,26.00
2019-04-21T14:24:17.452Z,26.50
2019-04-21T14:26:45.954Z,27.10
2019-04-21T14:29:15.481Z,26.80
2019-04-21T14:31:44.372Z,26.70
2019-04-21T14:34:14.233Z,26.50
2019-04-21T14:36:44.449Z,26.70
2019-04-21T14:39:14.489Z,26.40
2019-04-21T14:41:44.263Z,26.20
2019-04-21T14:44:13.289Z,26.40
2019-04-21T14:46:49.381Z,26.50
2019-04-21T14:49:19.525Z,27.30
2019-04-21T14:51:52.768Z,26.90
2019-04-21T14:54:23.129Z,27.40
2019-04-21T14:56:51.739Z,27.00
2019-04-21T14:59:21.365Z,26.90
2019-04-21T15:01:50.081Z,26.90
2019-04-21T15:04:21.032Z,26.90
2019-04-21T15:06:52.065Z,26.60
2019-04-21T15:09:21.000Z,27.20
2019-04-21T15:11:49.934Z,26.90
2019-04-21T15:14:20.216Z,26.60
2019-04-21T15:16:49.050Z,26.70
2019-04-21T15:19:20.448Z,27.10
2019-04-21T15:21:50.253Z,27.10
2019-04-21T15:24:20.396Z,27.10
2019-04-21T15:26:51.570Z,27.10
2019-04-21T15:29:20.439Z,27.10
2019-04-21T15:31:50.523Z,27.40
2019-04-21T15:34:22.066Z,27.20
2019-04-21T15:36:50.295Z,27.30
2019-04-21T15:39:19.529Z,26.90
2019-04-21T15:41:48.349Z,27.50
2019-04-21T15:44:17.027Z,27.00
2019-04-21T15:46:48.124Z,27.30
2019-04-21T15:49:17.506Z,27.30
2019-04-21T15:51:46.451Z,27.50
2019-04-21T15:54:16.402Z,27.50
2019-04-21T15:56:59.033Z,27.30
2019-04-21T15:59:38.202Z,27.00
2019-04-21T16:02:22.341Z,27.70
2019-04-21T16:04:52.640Z,27.10
2019-04-21T16:07:22.340Z,27.30
2019-04-21T16:09:52.248Z,26.70
2019-04-21T16:12:22.045Z,26.70
2019-04-21T16:14:50.695Z,27.20
2019-04-21T16:17:19.348Z,27.20
2019-04-21T16:19:49.917Z,27.30
2019-04-21T16:22:18.833Z,27.70
2019-04-21T16:24:47.749Z,27.50
2019-04-21T16:27:17.428Z,27.70
2019-04-21T16:29:46.056Z,27.40
2019-04-21T16:32:17.326Z,27.40
2019-04-21T16:34:50.735Z,27.40
2019-04-21T16:37:14.992Z,27.20
2019-04-21T16:39:43.510Z,27.20
2019-04-21T16:42:12.168Z,27.30
2019-04-21T16:44:41.002Z,27.40
2019-04-21T16:47:09.785Z,27.60
2019-04-21T16:49:38.360Z,28.10
2019-04-21T16:52:16.348Z,28.10
2019-04-21T16:54:47.534Z,27.80
2019-04-21T16:57:33.562Z,28.10
2019-04-21T17:00:04.605Z,27.90
2019-04-21T17:02:34.549Z,27.80
2019-04-21T17:05:04.651Z,28.20
2019-04-21T17:07:33.250Z,28.70
2019-04-21T17:10:02.536Z,28.70
2019-04-21T17:12:31.275Z,28.70
2019-04-21T17:15:15.461Z,28.90
2019-04-21T17:17:50.024Z,28.20
2019-04-21T17:20:15.672Z,28.60
2019-04-21T17:22:31.516Z,28.80
2019-04-21T17:25:00.392Z,29.10
2019-04-21T17:27:29.256Z,30.00
2019-04-21T17:29:59.002Z,29.10
2019-04-21T17:32:34.301Z,28.90
2019-04-21T17:34:58.047Z,29.90
2019-04-21T17:37:29.181Z,29.10
2019-04-21T17:39:59.093Z,28.90
2019-04-21T17:42:37.411Z,28.90
2019-04-21T17:44:59.350Z,28.80
2019-04-21T17:47:39.877Z,29.40
2019-04-21T17:50:15.680Z,29.10
2019-04-21T17:53:03.228Z,29.20
2019-04-21T17:55:35.080Z,29.60
2019-04-21T17:58:15.001Z,29.40
2019-04-21T18:03:33.259Z,29.50
2019-04-21T18:05:50.534Z,29.60
2019-04-21T18:08:26.010Z,29.70
2019-04-21T18:10:48.007Z,29.60
2019-04-21T18:13:11.567Z,29.60
2019-04-21T18:15:46.995Z,30.00
2019-04-21T18:18:08.623Z,30.10
2019-04-21T18:20:39.922Z,29.90
2019-04-21T18:23:39.866Z,30.00
2019-04-21T18:26:02.967Z,30.40
2019-04-21T18:28:28.469Z,30.80
2019-04-21T18:31:12.286Z,30.80
2019-04-21T18:33:45.444Z,31.10
2019-04-21T18:36:22.616Z,31.50
2019-04-21T18:39:10.271Z,31.10
2019-04-21T18:41:42.792Z,31.70
2019-04-21T18:47:09.662Z,32.30
2019-04-21T18:49:29.132Z,31.90
2019-04-21T18:52:20.718Z,31.40
2019-04-21T18:54:59.902Z,32.40
2019-04-21T18:57:24.432Z,32.70
2019-04-21T18:59:46.878Z,32.40
2019-04-21T19:02:18.229Z,32.50
2019-04-21T19:04:48.327Z,32.70
2019-04-21T19:07:33.266Z,33.10
2019-04-21T19:12:58.118Z,33.00
2019-04-21T19:15:07.139Z,33.20
2019-04-21T19:22:37.042Z,33.60
2019-04-21T19:25:13.256Z,34.40
2019-04-21T19:27:45.168Z,34.00
2019-04-21T19:30:13.502Z,34.00
2019-04-21T19:32:33.254Z,34.20
2019-04-21T19:34:57.173Z,34.10
2019-04-21T19:37:28.302Z,33.90
2019-04-21T19:40:12.148Z,34.60
2019-04-21T19:42:40.844Z,34.50
2019-04-21T19:45:17.599Z,34.50
2019-04-21T19:47:56.640Z,34.70
2019-04-21T19:50:30.763Z,34.60
2019-04-21T19:52:49.610Z,34.90
2019-04-21T19:55:07.824Z,34.30
2019-04-21T19:57:36.715Z,35.10
2019-04-21T20:00:10.196Z,35.60
2019-04-21T20:02:40.492Z,35.00
2019-04-21T20:05:14.595Z,35.40
2019-04-21T20:07:53.044Z,35.70
2019-04-21T20:10:33.447Z,36.20
2019-04-21T20:13:03.757Z,36.50
2019-04-21T20:15:36.136Z,36.90
2019-04-21T20:17:58.314Z,37.00
2019-04-21T20:20:15.241Z,37.70
2019-04-21T20:22:48.538Z,38.00
2019-04-21T20:25:19.073Z,37.40
2019-04-21T20:27:55.456Z,37.60
2019-04-21T20:30:32.818Z,37.90
2019-04-21T20:33:28.633Z,37.70
2019-04-21T20:35:46.545Z,38.10
2019-04-21T20:38:01.791Z,38.30
2019-04-21T20:40:28.820Z,38.40
2019-04-21T20:43:08.610Z,38.60
2019-04-21T20:45:40.211Z,38.90
2019-04-21T20:47:54.143Z,38.90
2019-04-21T20:50:33.432Z,39.20
2019-04-21T20:53:11.279Z,39.50
2019-04-21T20:55:39.526Z,39.50
2019-04-21T20:58:06.913Z,39.80
2019-04-21T21:00:50.773Z,40.30
2019-04-21T21:03:16.347Z,40.30
2019-04-21T21:05:39.557Z,39.80
2019-04-21T21:08:19.707Z,40.10
2019-04-21T21:10:40.060Z,40.00
2019-04-21T21:13:22.463Z,39.90
2019-04-21T21:16:01.238Z,40.00
2019-04-21T21:18:34.442Z,39.70
2019-04-21T21:20:49.379Z,39.60
2019-04-21T21:23:11.932Z,39.80
2019-04-21T21:26:02.003Z,39.40
2019-04-21T21:28:09.002Z,39.50
2019-04-21T21:30:38.566Z,39.00
2019-04-21T21:33:21.717Z,39.20
2019-04-21T21:35:41.010Z,38.70
2019-04-21T21:38:22.352Z,39.20
2019-04-21T21:40:45.522Z,38.70
2019-04-21T21:43:01.666Z,38.50
2019-04-21T21:45:39.474Z,38.40
2019-04-21T21:48:20.818Z,38.50
2019-04-21T21:50:44.330Z,38.80
2019-04-21T21:53:08.636Z,38.50
2019-04-21T21:55:34.030Z,38.60
2019-04-21T21:58:03.580Z,38.50
2019-04-21T22:00:36.189Z,38.70
2019-04-21T22:03:10.472Z,38.80
2019-04-21T22:05:42.643Z,39.20
2019-04-21T22:08:04.721Z,39.10
2019-04-21T22:10:34.854Z,39.20
2019-04-21T22:13:08.858Z,39.40
2019-04-21T22:15:33.957Z,39.50
2019-04-21T22:18:24.647Z,39.40
2019-04-21T22:20:56.498Z,39.60
2019-04-21T22:23:11.329Z,39.70
2019-04-21T22:25:38.042Z,39.80
2019-04-21T22:28:05.096Z,40.20
2019-04-21T22:30:39.266Z,39.50
2019-04-21T22:33:08.276Z,39.90
2019-04-21T22:35:41.985Z,39.50
2019-04-21T22:38:20.817Z,39.80
2019-04-21T22:40:50.716Z,39.90
2019-04-21T22:43:18.496Z,40.00
2019-04-21T22:45:35.677Z,40.00
2019-04-21T22:48:13.619Z,39.80
2019-04-21T22:50:38.330Z,40.00
2019-04-21T22:53:08.477Z,40.10
2019-04-21T22:55:38.892Z,40.10
2019-04-21T22:58:07.836Z,39.90
2019-04-21T23:00:44.657Z,40.30
2019-04-21T23:03:10.813Z,40.20
2019-04-21T23:05:41.210Z,40.30
2019-04-21T23:08:09.248Z,40.50
2019-04-21T23:10:43.404Z,40.50
2019-04-21T23:13:13.098Z,40.50
2019-04-21T23:15:46.138Z,40.60
2019-04-21T23:18:25.998Z,40.60
2019-04-21T23:20:58.807Z,40.30
2019-04-21T23:23:32.020Z,40.60
2019-04-21T23:25:54.958Z,41.00
2019-04-21T23:28:24.054Z,41.10
2019-04-21T23:31:00.868Z,41.10
2019-04-21T23:33:14.313Z,41.40
2019-04-21T23:35:43.898Z,41.30
2019-04-21T23:38:12.574Z,41.10
2019-04-21T23:40:48.729Z,41.50
2019-04-21T23:43:16.769Z,41.50
2019-04-21T23:45:44.659Z,41.80
2019-04-21T23:48:27.125Z,42.20
2019-04-21T23:50:50.690Z,42.50
2019-04-21T23:53:13.228Z,42.30
2019-04-21T23:55:43.315Z,42.50
2019-04-21T23:58:19.566Z,42.50
